Noroton, Connecticut
Current Conditions -  °F | °C
As of 9:56 PM on Saturday 24 Jan 2015 (Local Time) from KHPN Reporting Station
Clear Clear  
Wind Chill: 28°   Ceiling: Unl
Heat Index: 33°   Visibility: 9mi
Dew Point: 23°   Wind: 6mph
Humidity: 66%   Direction: 270°W
Pressure: 29.39"   Gusts: NA
Location:  41.0804°N, 73.4823°W
Report Text: KHPN 250256Z 27005KT 9SM CLR 01/M05 A2939 RMK AO2 SLP960 T00061050 51022 $
Loading
Personal Weather Stations






























Interactive Weather Map New forecast layout! Learn more

10-Day Weather Forecast

Advertisements
Track Severe Weather on mobile